Time;durP1;ratioP1;P1;durP2;ratioP2;P2;SDS_P1;SDS_P2;PMS_P1;PMS_P2;Temp;Humidity;BMP_temperature;BMP_pressure;BME280_temperature;BME280_humidity;BME280_pressure;Samples;Min_cycle;Max_cycle;Signal;HPM_P1;HPM_P2
2020/12/10 16:56:27;;;;;;;22.65;12.27;;;2.60;99.90;;;;;;5134383;27;20310;-58
2020/12/10 16:58:53;;;;;;;25.73;12.45;;;2.50;99.90;;;;;;5122662;27;20023;-58
2020/12/10 17:01:18;;;;;;;20.63;12.68;;;2.50;99.90;;;;;;5123595;28;20436;-61
2020/12/10 17:03:44;;;;;;;25.80;12.43;;;2.50;99.90;;;;;;5110724;28;20032;-60
2020/12/10 17:06:09;;;;;;;23.58;12.38;;;2.50;99.90;;;;;;5100754;28;20096;-59
2020/12/10 17:08:35;;;;;;;25.27;12.90;;;2.50;99.90;;;;;;5101272;28;20535;-57
2020/12/10 17:11:00;;;;;;;21.75;11.52;;;2.50;99.90;;;;;;5101327;28;20035;-58
2020/12/10 17:13:26;;;;;;;19.42;11.63;;;2.50;99.90;;;;;;5104388;27;20089;-58
2020/12/10 17:15:51;;;;;;;24.23;13.48;;;2.50;99.90;;;;;;5101088;28;20131;-58
2020/12/10 17:18:17;;;;;;;26.73;13.10;;;2.50;99.90;;;;;;5101000;28;20080;-57
2020/12/10 17:20:43;;;;;;;23.25;12.88;;;2.50;99.90;;;;;;5101803;28;20059;-59
2020/12/10 17:23:09;;;;;;;20.67;12.05;;;2.50;99.90;;;;;;5103832;28;20118;-55
2020/12/10 17:25:35;;;;;;;22.70;12.70;;;2.50;99.90;;;;;;5091977;28;20109;-58
2020/12/10 17:28:00;;;;;;;25.80;12.13;;;2.50;99.90;;;;;;5096792;28;20558;-58
2020/12/10 17:30:26;;;;;;;17.75;11.63;;;2.40;99.90;;;;;;5100525;28;20032;-56
2020/12/10 17:32:52;;;;;;;22.58;11.98;;;2.40;99.90;;;;;;5101342;28;20024;-57
2020/12/10 17:35:18;;;;;;;22.45;12.27;;;2.30;99.90;;;;;;5100870;28;20028;-60
2020/12/10 17:37:44;;;;;;;22.38;11.77;;;2.30;99.90;;;;;;5101295;28;20494;-57
2020/12/10 17:40:10;;;;;;;23.00;12.25;;;2.30;99.90;;;;;;5101234;28;20055;-58
2020/12/10 17:42:36;;;;;;;22.52;11.40;;;2.30;99.90;;;;;;5100720;28;20199;-56
2020/12/10 17:45:03;;;;;;;21.85;12.25;;;2.30;99.90;;;;;;5098681;28;20115;-57
2020/12/10 17:47:28;;;;;;;20.52;12.25;;;2.20;99.90;;;;;;5102711;28;20185;-59
2020/12/10 17:49:54;;;;;;;17.67;10.80;;;2.20;99.90;;;;;;5110110;28;20513;-61
2020/12/10 17:52:19;;;;;;;21.17;11.43;;;2.20;99.90;;;;;;5104984;28;20044;-59
2020/12/10 17:54:50;;;;;;;20.40;11.80;;;2.20;99.90;;;;;;5096693;28;20037;-59
2020/12/10 17:57:16;;;;;;;18.63;11.23;;;2.20;99.90;;;;;;5098547;28;20028;-61
2020/12/10 17:59:41;;;;;;;21.60;12.00;;;2.20;99.90;;;;;;5100283;28;20016;-61
2020/12/10 18:02:07;;;;;;;17.80;10.90;;;2.20;99.90;;;;;;5098742;28;20089;-61
2020/12/10 18:04:34;;;;;;;21.38;11.80;;;2.10;99.90;;;;;;5096466;28;20024;-60
2020/12/10 18:07:00;;;;;;;21.77;12.27;;;2.10;99.90;;;;;;5095137;28;20108;-60
2020/12/10 18:09:25;;;;;;;22.48;10.82;;;2.10;99.90;;;;;;5092336;28;20078;-57
2020/12/10 18:11:52;;;;;;;20.92;12.98;;;2.10;99.90;;;;;;5090660;28;20294;-60
2020/12/10 18:14:18;;;;;;;24.88;13.00;;;2.10;99.90;;;;;;5084879;28;20036;-59
2020/12/10 18:16:43;;;;;;;20.75;13.55;;;2.00;99.90;;;;;;5089298;28;20111;-60
2020/12/10 18:19:09;;;;;;;22.63;12.10;;;2.00;99.90;;;;;;5086569;28;20624;-60
2020/12/10 18:21:35;;;;;;;23.33;14.80;;;2.00;99.90;;;;;;5089830;28;20043;-58
2020/12/10 18:24:00;;;;;;;28.05;14.30;;;2.00;99.90;;;;;;5092944;28;20027;-60
2020/12/10 18:26:26;;;;;;;23.88;13.73;;;2.10;99.90;;;;;;5088867;28;20039;-58
2020/12/10 18:28:52;;;;;;;23.23;13.50;;;2.00;99.90;;;;;;5072380;28;20032;-59
2020/12/10 18:31:17;;;;;;;21.27;12.60;;;2.00;99.90;;;;;;5089916;28;20119;-58
2020/12/10 18:33:43;;;;;;;21.10;13.60;;;1.90;99.90;;;;;;5091910;28;20028;-59
2020/12/10 18:36:13;;;;;;;23.70;13.52;;;2.00;99.90;;;;;;5097353;28;20048;-59
2020/12/10 18:38:38;;;;;;;26.08;13.07;;;2.00;99.90;;;;;;5098943;28;20528;-59
2020/12/10 18:41:04;;;;;;;23.55;13.77;;;2.00;99.90;;;;;;5103323;28;20031;-60
2020/12/10 18:43:29;;;;;;;24.38;14.18;;;1.90;99.90;;;;;;5094070;28;20036;-60
2020/12/10 18:45:57;;;;;;;28.58;15.10;;;1.90;99.90;;;;;;5092195;28;20106;-59
2020/12/10 18:48:23;;;;;;;28.48;16.17;;;1.90;99.90;;;;;;5102643;28;20036;-55
2020/12/10 18:50:48;;;;;;;24.63;14.02;;;1.90;99.90;;;;;;5090589;28;20081;-58
2020/12/10 18:53:14;;;;;;;27.55;15.20;;;1.90;99.90;;;;;;5089800;28;20036;-58
2020/12/10 18:55:39;;;;;;;24.67;13.77;;;1.80;99.90;;;;;;5088537;28;20754;-60
2020/12/10 18:58:05;;;;;;;24.90;12.93;;;1.80;99.90;;;;;;5101785;28;20032;-58
2020/12/10 19:00:30;;;;;;;23.88;13.25;;;1.80;99.90;;;;;;5099900;28;20028;-59
2020/12/10 19:02:56;;;;;;;25.63;14.15;;;1.80;99.90;;;;;;5088781;28;20023;-57
2020/12/10 19:05:28;;;;;;;24.77;15.57;;;1.80;99.90;;;;;;5093313;28;20403;-57
2020/12/10 19:07:54;;;;;;;23.70;14.23;;;1.80;99.90;;;;;;5090812;28;20042;-58
2020/12/10 19:10:22;;;;;;;27.55;15.90;;;1.80;99.90;;;;;;5090483;28;20044;-59
2020/12/10 19:12:51;;;;;;;24.88;14.55;;;1.80;99.90;;;;;;5097107;28;20043;-59
2020/12/10 19:15:18;;;;;;;27.20;14.60;;;1.80;99.90;;;;;;5093596;28;20040;-58
2020/12/10 19:17:43;;;;;;;28.55;15.35;;;1.70;99.90;;;;;;5093072;28;20038;-57
2020/12/10 19:20:09;;;;;;;25.98;15.10;;;1.70;99.90;;;;;;5086687;28;20356;-59
2020/12/10 19:22:37;;;;;;;27.80;16.35;;;1.70;99.90;;;;;;5090002;28;20020;-58
2020/12/10 19:25:03;;;;;;;26.25;15.80;;;1.70;99.90;;;;;;5087785;28;20391;-57
2020/12/10 19:27:32;;;;;;;26.45;14.80;;;1.70;99.90;;;;;;5070332;28;20526;-56
2020/12/10 19:29:59;;;;;;;26.38;14.85;;;1.70;99.90;;;;;;5089971;28;20028;-56
2020/12/10 19:32:25;;;;;;;25.42;15.15;;;1.70;99.90;;;;;;5095211;28;20510;-57
2020/12/10 19:34:51;;;;;;;24.38;15.10;;;1.70;99.90;;;;;;5100483;28;20039;-59
2020/12/10 19:37:18;;;;;;;29.17;15.23;;;1.70;99.90;;;;;;5086065;28;20522;-59
2020/12/10 19:39:45;;;;;;;29.60;15.75;;;1.60;99.90;;;;;;5087137;28;20032;-56
2020/12/10 19:42:11;;;;;;;29.85;14.73;;;1.60;99.90;;;;;;5087066;28;20380;-59
2020/12/10 19:44:37;;;;;;;27.25;16.50;;;1.60;99.90;;;;;;5046928;28;20115;-60
2020/12/10 19:47:03;;;;;;;29.95;16.30;;;1.50;99.90;;;;;;5087036;28;20107;-59
2020/12/10 19:49:28;;;;;;;36.00;15.95;;;1.60;99.90;;;;;;5090367;28;20102;-58
2020/12/10 19:51:56;;;;;;;28.17;16.48;;;1.50;99.90;;;;;;5094251;28;20031;-58
2020/12/10 19:54:22;;;;;;;29.25;15.52;;;1.50;99.90;;;;;;5094039;28;20051;-58
2020/12/10 19:56:48;;;;;;;28.13;15.35;;;1.50;99.90;;;;;;5099305;28;20150;-60
2020/12/10 19:59:14;;;;;;;32.42;17.42;;;1.50;99.90;;;;;;5088718;28;20132;-59
2020/12/10 20:01:39;;;;;;;31.45;17.85;;;1.50;99.90;;;;;;5100361;28;20106;-59
2020/12/10 20:04:06;;;;;;;33.78;17.38;;;1.40;99.90;;;;;;5085294;28;20131;-60
2020/12/10 20:06:33;;;;;;;33.90;18.60;;;1.40;99.90;;;;;;5088318;28;20027;-60
2020/12/10 20:09:03;;;;;;;32.58;17.60;;;1.40;99.90;;;;;;5101490;28;20050;-57
2020/12/10 20:11:29;;;;;;;39.20;18.67;;;1.40;99.90;;;;;;5088432;28;20331;-62
2020/12/10 20:13:55;;;;;;;33.25;18.45;;;1.50;99.90;;;;;;5096310;28;20111;-58
2020/12/10 20:16:21;;;;;;;37.30;21.83;;;1.50;99.90;;;;;;5067028;28;20119;-58
2020/12/10 20:18:47;;;;;;;38.38;19.38;;;1.40;99.90;;;;;;5093094;28;20027;-58
2020/12/10 20:21:17;;;;;;;41.28;20.27;;;1.40;99.90;;;;;;5075024;28;20043;-58
2020/12/10 20:23:48;;;;;;;37.10;19.23;;;1.40;99.90;;;;;;5092756;28;20062;-58
